Time;durP1;ratioP1;P1;durP2;ratioP2;P2;SDS_P1;SDS_P2;PMS_P1;PMS_P2;Temp;Humidity;BMP_temperature;BMP_pressure;BME280_temperature;BME280_humidity;BME280_pressure;Samples;Min_cycle;Max_cycle;Signal;HPM_P1;HPM_P2
2023/09/25 00:01:26;;;;;;;3.97;2.90;;;14.30;99.90;;;;;;6218014;23;20175;-83
2023/09/25 00:04:02;;;;;;;5.50;2.90;;;14.30;99.90;;;;;;6244491;23;20609;-83
2023/09/25 00:06:30;;;;;;;5.40;3.20;;;14.30;99.90;;;;;;6243619;22;20240;-82
2023/09/25 00:09:10;;;;;;;5.97;3.00;;;14.20;99.90;;;;;;6219723;23;20166;-82
2023/09/25 00:11:51;;;;;;;4.80;2.93;;;14.20;99.90;;;;;;6219875;23;20253;-81
2023/09/25 00:14:22;;;;;;;6.90;2.97;;;14.50;99.90;;;;;;6218580;23;20177;-83
2023/09/25 00:16:54;;;;;;;4.70;2.93;;;14.00;99.90;;;;;;6243507;23;20547;-83
2023/09/25 00:19:26;;;;;;;6.00;3.07;;;14.10;99.90;;;;;;6218470;23;20221;-81
2023/09/25 00:22:12;;;;;;;6.73;3.20;;;13.80;99.90;;;;;;6241580;22;20195;-83
2023/09/25 00:24:55;;;;;;;6.13;2.77;;;14.10;99.90;;;;;;6240805;23;20170;-83
2023/09/25 00:27:59;;;;;;;5.23;2.60;;;14.00;99.90;;;;;;6213450;23;20482;-84
2023/09/25 00:31:11;;;;;;;;;;;;;;;;;;;;;
2023/09/25 00:34:14;;;;;;;5.97;2.60;;;14.30;99.90;;;;;;6237148;23;20642;-82
2023/09/25 00:36:45;;;;;;;4.50;3.20;;;14.00;99.90;;;;;;6218457;23;20667;-81
2023/09/25 00:39:14;;;;;;;8.30;3.43;;;14.00;99.90;;;;;;6217398;23;20220;-82
2023/09/25 00:41:47;;;;;;;4.07;2.80;;;14.00;99.90;;;;;;6216641;23;20499;-83
2023/09/25 00:44:24;;;;;;;7.63;3.13;;;14.00;99.90;;;;;;6217937;23;20202;-82
2023/09/25 00:46:55;;;;;;;4.07;2.90;;;14.20;99.90;;;;;;6217603;23;20233;-84
2023/09/25 00:49:41;;;;;;;6.57;3.10;;;13.90;99.90;;;;;;6220441;23;20170;-85
2023/09/25 00:52:14;;;;;;;7.30;2.90;;;13.90;99.90;;;;;;6218079;23;20512;-84
2023/09/25 00:54:58;;;;;;;5.37;2.80;;;13.70;99.90;;;;;;6217128;23;20180;-83
2023/09/25 00:57:41;;;;;;;8.10;3.10;;;13.60;99.90;;;;;;6241586;23;20285;-83
2023/09/25 01:00:19;;;;;;;8.10;3.47;;;13.90;99.90;;;;;;6217906;23;20253;-85
2023/09/25 01:03:18;;;;;;;4.80;3.00;;;13.80;99.90;;;;;;6239818;23;20582;-85
2023/09/25 01:06:26;;;;;;;5.23;2.90;;;13.80;99.90;;;;;;6219256;23;20198;-83
2023/09/25 01:09:12;;;;;;;4.60;2.97;;;13.80;99.90;;;;;;6239125;23;20224;-84
2023/09/25 01:12:56;;;;;;;6.57;3.30;;;13.80;99.90;;;;;;6209988;23;20180;-84
2023/09/25 01:15:59;;;;;;;4.97;3.00;;;13.80;99.90;;;;;;6163807;23;20177;-82
2023/09/25 01:18:29;;;;;;;6.70;3.53;;;13.80;99.90;;;;;;6217484;23;20198;-83
2023/09/25 01:20:58;;;;;;;7.03;2.93;;;13.80;99.90;;;;;;6241920;22;20217;-83
2023/09/25 01:23:32;;;;;;;7.30;3.20;;;13.90;99.90;;;;;;6242260;23;20176;-83
2023/09/25 01:26:09;;;;;;;6.20;2.90;;;13.80;99.90;;;;;;6241526;23;20166;-83
2023/09/25 01:28:47;;;;;;;6.17;3.00;;;13.90;99.90;;;;;;6242044;23;20194;-84
2023/09/25 01:31:23;;;;;;;4.43;2.70;;;13.90;99.90;;;;;;6241258;23;20248;-83
2023/09/25 01:33:56;;;;;;;5.47;2.90;;;13.90;99.90;;;;;;6241996;23;20162;-82
2023/09/25 01:36:33;;;;;;;9.03;3.03;;;13.90;99.90;;;;;;6242354;22;20194;-81
2023/09/25 01:39:04;;;;;;;5.70;2.60;;;14.00;99.90;;;;;;6217735;23;20208;-83
2023/09/25 01:41:43;;;;;;;3.60;2.40;;;14.20;99.90;;;;;;6218215;23;20177;-82
2023/09/25 01:44:11;;;;;;;3.83;2.50;;;13.90;99.90;;;;;;6244133;22;20210;-82
2023/09/25 01:46:51;;;;;;;3.87;2.77;;;13.90;99.90;;;;;;6244191;23;20156;-81
2023/09/25 01:49:20;;;;;;;11.13;3.40;;;13.90;99.90;;;;;;6242414;23;20166;-80
2023/09/25 01:51:53;;;;;;;9.93;3.20;;;13.90;99.90;;;;;;6242791;22;20651;-82
2023/09/25 01:54:21;;;;;;;6.87;2.80;;;13.90;99.90;;;;;;6242798;23;20167;-82
2023/09/25 01:56:52;;;;;;;3.70;2.30;;;13.90;99.90;;;;;;6242635;23;20171;-83
2023/09/25 01:59:20;;;;;;;3.77;2.60;;;14.10;99.90;;;;;;6242546;23;20679;-81
2023/09/25 02:01:54;;;;;;;5.27;2.77;;;14.00;99.90;;;;;;6217532;23;20240;-82
2023/09/25 02:04:24;;;;;;;4.43;2.63;;;13.80;99.90;;;;;;6244101;22;20158;-83
2023/09/25 02:06:55;;;;;;;8.30;2.90;;;13.70;99.90;;;;;;6244105;22;20236;-83
2023/09/25 02:09:23;;;;;;;3.97;2.40;;;13.70;99.90;;;;;;6242991;23;20188;-81
2023/09/25 02:11:54;;;;;;;4.60;2.50;;;13.80;99.90;;;;;;6217716;23;20177;-81
2023/09/25 02:14:25;;;;;;;3.40;2.53;;;13.80;99.90;;;;;;6267535;22;20166;-81
2023/09/25 02:16:53;;;;;;;3.23;2.30;;;13.70;99.90;;;;;;6217341;23;20606;-82
2023/09/25 02:19:28;;;;;;;4.80;2.30;;;13.60;99.90;;;;;;6218071;23;20200;-83
2023/09/25 02:21:58;;;;;;;6.37;2.77;;;13.60;99.90;;;;;;6242830;22;20285;-82
2023/09/25 02:24:27;;;;;;;6.17;2.80;;;13.60;99.90;;;;;;6218248;23;20171;-81
2023/09/25 02:26:55;;;;;;;5.63;2.93;;;13.60;99.90;;;;;;6245638;22;20204;-83
2023/09/25 02:29:26;;;;;;;4.03;2.50;;;13.60;99.90;;;;;;6219469;23;20166;-83
2023/09/25 02:31:55;;;;;;;5.90;2.50;;;13.60;99.90;;;;;;6243749;23;20503;-82
2023/09/25 02:34:27;;;;;;;5.60;2.90;;;13.50;99.90;;;;;;6244517;23;20598;-83
2023/09/25 02:36:59;;;;;;;3.57;2.30;;;13.50;99.90;;;;;;6218465;23;20198;-83
2023/09/25 02:39:30;;;;;;;6.03;2.80;;;13.50;99.90;;;;;;6217898;23;20695;-82
2023/09/25 02:42:07;;;;;;;4.33;2.60;;;13.50;99.90;;;;;;6243890;23;20609;-83
2023/09/25 02:44:36;;;;;;;3.33;2.60;;;13.40;99.90;;;;;;6244312;23;20248;-82
2023/09/25 02:47:04;;;;;;;3.70;2.27;;;13.40;99.90;;;;;;6244147;23;20170;-82
2023/09/25 02:49:32;;;;;;;5.90;3.00;;;13.60;99.90;;;;;;6218997;23;20178;-82
2023/09/25 02:52:00;;;;;;;4.13;2.60;;;13.30;99.90;;;;;;6218797;23;20190;-83
2023/09/25 02:54:31;;;;;;;4.93;2.80;;;13.30;99.90;;;;;;6244062;23;20173;-82
2023/09/25 02:57:04;;;;;;;4.73;2.83;;;13.40;99.90;;;;;;6244042;23;20622;-82
2023/09/25 02:59:38;;;;;;;2.90;2.33;;;13.30;99.90;;;;;;6242874;23;20280;-82
2023/09/25 03:02:13;;;;;;;8.67;3.80;;;13.30;99.90;;;;;;6243570;23;20166;-81
2023/09/25 03:04:44;;;;;;;4.17;2.90;;;13.30;99.90;;;;;;6243079;23;20220;-81
2023/09/25 03:07:14;;;;;;;10.47;3.77;;;13.20;99.90;;;;;;6245614;22;20264;-82
2023/09/25 03:09:46;;;;;;;5.57;2.70;;;13.40;99.90;;;;;;6244496;23;20176;-82
2023/09/25 03:12:15;;;;;;;4.80;2.90;;;13.10;99.90;;;;;;6243622;23;20169;-81
2023/09/25 03:14:47;;;;;;;4.97;3.07;;;13.10;99.90;;;;;;6245551;22;20245;-83
2023/09/25 03:17:25;;;;;;;6.77;2.70;;;13.00;99.90;;;;;;6220799;23;20259;-82
2023/09/25 03:19:54;;;;;;;7.37;3.23;;;13.10;99.90;;;;;;6218558;23;20205;-82
2023/09/25 03:22:28;;;;;;;4.93;2.83;;;13.10;99.90;;;;;;6219408;23;20186;-81
2023/09/25 03:25:12;;;;;;;4.73;2.80;;;12.90;99.90;;;;;;6244402;23;20333;-82
2023/09/25 03:27:45;;;;;;;3.93;2.80;;;12.90;99.90;;;;;;6219885;23;20180;-81
2023/09/25 03:30:14;;;;;;;5.63;2.93;;;12.90;99.90;;;;;;6244246;23;20182;-82
2023/09/25 03:32:45;;;;;;;5.47;3.10;;;12.70;99.90;;;;;;6243385;23;20170;-82
2023/09/25 03:35:16;;;;;;;5.63;3.07;;;12.90;99.90;;;;;;6218681;22;20202;-83
2023/09/25 03:38:06;;;;;;;5.07;3.07;;;13.10;99.90;;;;;;6242988;23;20177;-82
2023/09/25 03:40:34;;;;;;;4.07;2.97;;;12.80;99.90;;;;;;6245358;22;20253;-80
2023/09/25 03:43:06;;;;;;;6.70;3.47;;;12.70;99.90;;;;;;6241777;22;20205;-82
2023/09/25 03:45:39;;;;;;;5.20;3.20;;;12.70;99.90;;;;;;6243888;22;20590;-82
2023/09/25 03:48:07;;;;;;;5.27;3.27;;;12.60;99.90;;;;;;6217691;23;20170;-82
2023/09/25 03:50:36;;;;;;;4.30;3.03;;;12.60;99.90;;;;;;6245199;22;20701;-82
2023/09/25 03:53:15;;;;;;;5.50;3.10;;;12.30;99.90;;;;;;6243497;23;20504;-81
2023/09/25 03:55:54;;;;;;;6.97;2.90;;;12.60;99.90;;;;;;6243012;23;20287;-81
2023/09/25 03:58:28;;;;;;;3.93;3.10;;;12.60;99.90;;;;;;6219387;23;20280;-81
2023/09/25 04:00:57;;;;;;;3.63;3.10;;;12.60;99.90;;;;;;6243942;23;20158;-82
2023/09/25 04:03:26;;;;;;;5.83;3.50;;;12.60;99.90;;;;;;6218333;23;20252;-82
2023/09/25 04:05:58;;;;;;;5.17;3.30;;;12.80;99.90;;;;;;6243775;22;20237;-81
2023/09/25 04:08:30;;;;;;;4.63;3.37;;;12.70;99.90;;;;;;6245507;22;20167;-82
2023/09/25 04:11:20;;;;;;;7.37;3.70;;;12.60;99.90;;;;;;6220308;23;20244;-80
2023/09/25 04:13:57;;;;;;;6.67;3.70;;;12.80;99.90;;;;;;6243101;23;20531;-81
2023/09/25 04:16:28;;;;;;;9.03;3.90;;;12.80;99.90;;;;;;6242579;23;20154;-83
2023/09/25 04:19:08;;;;;;;4.87;3.10;;;12.70;99.90;;;;;;6220130;23;20281;-82
2023/09/25 04:21:48;;;;;;;5.47;3.30;;;12.80;99.90;;;;;;6243437;22;20205;-82
2023/09/25 04:24:22;;;;;;;4.03;3.20;;;12.70;99.90;;;;;;6242429;23;20165;-82
2023/09/25 04:26:55;;;;;;;3.90;3.03;;;12.70;99.90;;;;;;6242359;23;20173;-81
2023/09/25 04:29:22;;;;;;;5.87;3.03;;;12.60;99.90;;;;;;6217751;23;20174;-82
2023/09/25 04:31:51;;;;;;;4.37;3.10;;;12.80;99.90;;;;;;6218015;23;20613;-81
2023/09/25 04:34:24;;;;;;;5.13;3.20;;;12.60;99.90;;;;;;6244755;22;20162;-82
2023/09/25 04:36:54;;;;;;;6.73;3.60;;;12.70;99.90;;;;;;6242913;22;20236;-82
2023/09/25 04:39:28;;;;;;;10.47;3.50;;;12.70;99.90;;;;;;6218061;23;20713;-80
2023/09/25 04:41:56;;;;;;;9.03;3.53;;;12.70;99.90;;;;;;6241731;23;20166;-80
2023/09/25 04:44:25;;;;;;;14.30;4.17;;;12.70;99.90;;;;;;6243583;22;20192;-81
2023/09/25 04:46:53;;;;;;;4.90;3.07;;;12.70;99.90;;;;;;6244080;22;20170;-81
2023/09/25 04:49:26;;;;;;;4.77;3.10;;;12.70;99.90;;;;;;6242131;23;20173;-80
2023/09/25 04:51:55;;;;;;;6.93;3.37;;;12.60;99.90;;;;;;6242267;22;20217;-81
2023/09/25 04:54:25;;;;;;;4.93;2.90;;;12.70;99.90;;;;;;6242750;22;20171;-81
2023/09/25 04:56:57;;;;;;;9.30;3.37;;;12.80;99.90;;;;;;6242668;23;20190;-80
2023/09/25 04:59:32;;;;;;;5.17;3.23;;;12.70;99.90;;;;;;6242725;23;20198;-80
2023/09/25 05:02:00;;;;;;;5.33;3.30;;;12.70;99.90;;;;;;6243165;23;20162;-81
2023/09/25 05:04:28;;;;;;;7.00;3.33;;;12.70;99.90;;;;;;6242812;23;20174;-80
2023/09/25 05:07:03;;;;;;;4.37;2.77;;;13.00;99.90;;;;;;6241763;22;20640;-80
2023/09/25 05:09:34;;;;;;;5.93;3.00;;;12.80;99.90;;;;;;6241769;23;20174;-81
2023/09/25 05:12:07;;;;;;;12.30;3.70;;;12.80;99.90;;;;;;6242692;23;20261;-81
2023/09/25 05:14:44;;;;;;;5.87;2.97;;;12.90;99.90;;;;;;6217302;23;20605;-80
2023/09/25 05:17:21;;;;;;;4.83;3.07;;;13.10;99.90;;;;;;6244065;22;20166;-78
2023/09/25 05:19:49;;;;;;;5.67;2.90;;;12.90;99.90;;;;;;6215898;23;20621;-80
2023/09/25 05:22:23;;;;;;;5.00;3.13;;;12.80;99.90;;;;;;6244047;22;20266;-79
2023/09/25 05:24:52;;;;;;;4.90;2.80;;;12.90;99.90;;;;;;6242195;23;20257;-79
2023/09/25 05:27:26;;;;;;;6.90;3.37;;;12.80;99.90;;;;;;6242743;23;20211;-79
2023/09/25 05:30:00;;;;;;;5.60;2.90;;;12.80;99.90;;;;;;6243010;23;20186;-80
2023/09/25 05:32:38;;;;;;;5.27;2.83;;;12.80;99.90;;;;;;6218082;23;20212;-81
2023/09/25 05:35:07;;;;;;;5.07;3.00;;;12.90;99.90;;;;;;6216830;23;20177;-80
2023/09/25 05:37:38;;;;;;;7.17;3.00;;;12.90;99.90;;;;;;6242283;22;20196;-79
2023/09/25 05:40:12;;;;;;;5.07;3.40;;;12.90;99.90;;;;;;6243335;22;20228;-80
2023/09/25 05:42:51;;;;;;;4.33;2.70;;;13.00;99.90;;;;;;6218123;23;20190;-79
2023/09/25 05:45:22;;;;;;;9.33;3.10;;;13.00;99.90;;;;;;6217163;23;20170;-79
2023/09/25 05:47:55;;;;;;;6.43;3.00;;;13.10;99.90;;;;;;6242348;23;20166;-79
2023/09/25 05:50:36;;;;;;;5.77;3.07;;;13.10;99.90;;;;;;6240487;22;20240;-81
2023/09/25 05:53:10;;;;;;;7.17;3.13;;;13.20;99.90;;;;;;6242092;22;20197;-81
2023/09/25 05:55:40;;;;;;;4.97;2.87;;;13.40;99.90;;;;;;6242464;23;20170;-81
2023/09/25 05:58:17;;;;;;;4.97;3.00;;;13.20;99.90;;;;;;6241237;23;20190;-81
2023/09/25 06:00:50;;;;;;;6.60;3.20;;;13.10;99.90;;;;;;6243752;23;20198;-80
2023/09/25 06:03:19;;;;;;;6.30;3.17;;;13.30;99.90;;;;;;6246357;22;20189;-80
2023/09/25 06:06:01;;;;;;;5.57;3.20;;;13.30;99.90;;;;;;6241939;22;20276;-80
2023/09/25 06:08:30;;;;;;;4.67;3.07;;;13.30;99.90;;;;;;6219611;23;20162;-80
2023/09/25 06:11:07;;;;;;;6.10;3.10;;;13.40;99.90;;;;;;6243207;23;20173;-80
2023/09/25 06:13:44;;;;;;;7.57;3.00;;;13.50;99.90;;;;;;6243737;22;20174;-80
2023/09/25 06:16:16;;;;;;;8.97;3.57;;;13.40;99.90;;;;;;6243856;23;20177;-81
2023/09/25 06:18:50;;;;;;;6.93;3.20;;;13.60;99.90;;;;;;6220226;23;20309;-79
2023/09/25 06:21:32;;;;;;;8.47;3.20;;;13.60;99.90;;;;;;6244046;22;20236;-80
2023/09/25 06:24:06;;;;;;;5.50;3.00;;;13.60;99.90;;;;;;6245758;22;20151;-80
2023/09/25 06:26:33;;;;;;;6.60;3.10;;;13.50;99.90;;;;;;6219528;23;20656;-81
2023/09/25 06:29:01;;;;;;;9.70;3.50;;;13.90;99.90;;;;;;6246715;22;20162;-79
2023/09/25 06:35:40;;;;;;;6.10;3.00;;;14.10;99.90;;;;;;6102293;23;20254;-81
2023/09/25 08:18:52;;;;;;;3.30;1.30;;;19.20;99.90;;;;;;6252437;22;20246;-84
2023/09/25 08:21:42;;;;;;;2.83;1.20;;;20.00;99.90;;;;;;6129140;23;20199;-83
2023/09/25 08:29:01;;;;;;;3.33;1.30;;;21.30;99.90;;;;;;6149053;23;20161;-82
2023/09/25 08:32:30;;;;;;;2.60;1.23;;;21.50;99.90;;;;;;5950781;23;20178;-82
2023/09/25 08:35:25;;;;;;;4.37;1.40;;;21.80;99.90;;;;;;6017531;23;20327;-82
2023/09/25 09:11:21;;;;;;;3.07;1.43;;;23.80;99.90;;;;;;6194004;22;20214;-84
2023/09/25 09:14:10;;;;;;;1.50;1.40;;;23.70;99.90;;;;;;6240349;23;20170;-85
2023/09/25 09:17:04;;;;;;;4.87;1.63;;;24.20;99.90;;;;;;6214572;23;20196;-81
2023/09/25 09:20:45;;;;;;;2.50;1.50;;;24.40;99.90;;;;;;6224433;23;20201;-83
2023/09/25 09:24:28;;;;;;;;;;;;;;;;;;;;;
2023/09/25 09:33:30;;;;;;;2.17;1.45;;;24.80;99.90;;;;;;6233217;22;20709;-78
2023/09/25 09:36:34;;;;;;;3.35;1.50;;;24.80;99.90;;;;;;6192479;23;20201;-81
2023/09/25 09:39:34;;;;;;;4.78;1.80;;;25.00;99.90;;;;;;6191545;23;20220;-82
2023/09/25 09:42:20;;;;;;;3.55;1.63;;;25.20;99.90;;;;;;6189581;23;20244;-83
2023/09/25 12:49:28;;;;;;;2.42;1.50;;;25.90;98.40;;;;;;6185636;22;20206;-81
2023/09/25 12:52:00;;;;;;;1.50;1.40;;;25.50;98.10;;;;;;6187031;23;20190;-81
2023/09/25 12:54:38;;;;;;;4.05;1.48;;;25.70;99.30;;;;;;6211825;23;20159;-80
2023/09/25 12:58:36;;;;;;;3.00;1.60;;;25.50;99.60;;;;;;6141758;23;20249;-80
2023/09/25 13:01:52;;;;;;;2.72;1.50;;;25.60;99.90;;;;;;6182807;23;20222;-80
2023/09/25 13:04:24;;;;;;;1.80;1.58;;;25.50;99.70;;;;;;6213930;23;20167;-86
2023/09/25 13:07:06;;;;;;;15.30;3.00;;;25.20;99.50;;;;;;6124485;22;20236;-86
2023/09/25 13:10:27;;;;;;;1.98;1.40;;;25.30;99.90;;;;;;6143429;23;20175;-88
2023/09/25 13:13:06;;;;;;;4.38;1.63;;;25.40;99.90;;;;;;6181317;23;20175;-79
2023/09/25 13:15:46;;;;;;;3.15;1.45;;;25.10;99.90;;;;;;6205258;23;20201;-80
2023/09/25 13:18:19;;;;;;;1.83;1.40;;;25.00;99.60;;;;;;6207240;23;20164;-78
2023/09/25 13:37:53;;;;;;;17.90;3.22;;;24.30;99.90;;;;;;6149166;22;20284;-80
2023/09/25 13:40:30;;;;;;;1.87;1.40;;;24.20;99.90;;;;;;6187763;23;20557;-81
2023/09/25 13:43:05;;;;;;;2.17;1.40;;;24.20;99.90;;;;;;6213669;23;20167;-81
2023/09/25 13:45:36;;;;;;;4.47;1.50;;;24.00;99.90;;;;;;6162961;23;20175;-83
2023/09/25 13:48:08;;;;;;;3.77;1.40;;;23.80;99.90;;;;;;6196790;23;20162;-81
2023/09/25 13:50:38;;;;;;;6.43;2.00;;;23.80;99.90;;;;;;6186900;23;20561;-82
2023/09/25 13:53:19;;;;;;;10.00;2.20;;;23.70;99.90;;;;;;6165238;23;20163;-79
2023/09/25 13:55:51;;;;;;;6.40;1.93;;;23.60;99.90;;;;;;6186910;23;20280;-81
2023/09/25 13:58:40;;;;;;;2.75;1.50;;;23.60;99.90;;;;;;6189860;23;20250;-80
2023/09/25 14:01:08;;;;;;;3.00;1.60;;;23.70;99.90;;;;;;6185944;23;20632;-81
2023/09/25 14:03:44;;;;;;;2.13;1.30;;;23.90;99.90;;;;;;6188278;23;20178;-80
2023/09/25 14:06:20;;;;;;;2.40;1.43;;;23.90;99.90;;;;;;6187110;23;20506;-81
2023/09/25 14:08:48;;;;;;;4.00;1.70;;;24.00;99.90;;;;;;6185886;23;20237;-79
2023/09/25 14:11:29;;;;;;;3.97;1.33;;;24.00;99.90;;;;;;6189690;23;20186;-81
2023/09/25 14:13:58;;;;;;;2.53;1.40;;;23.80;99.90;;;;;;6187546;23;20197;-81
2023/09/25 14:16:32;;;;;;;4.47;1.60;;;23.70;99.90;;;;;;6187216;23;20487;-85
2023/09/25 14:23:24;;;;;;;2.97;1.40;;;23.30;99.90;;;;;;6185183;23;20199;-83
2023/09/25 14:26:01;;;;;;;2.83;1.43;;;23.30;99.90;;;;;;6187948;23;20166;-81
2023/09/25 14:28:39;;;;;;;2.33;1.43;;;23.10;99.90;;;;;;6164616;23;20187;-84
2023/09/25 14:31:15;;;;;;;2.03;1.40;;;23.20;99.90;;;;;;6215545;23;20163;-84
2023/09/25 14:38:05;;;;;;;8.67;1.90;;;23.00;99.90;;;;;;6197557;23;20210;-84
2023/09/25 20:13:17;;;;;;;6.17;3.97;;;17.10;99.90;;;;;;6223579;22;20213;-85
2023/09/25 20:16:25;;;;;;;7.10;4.23;;;17.00;99.90;;;;;;6118044;23;20739;-85
